createdAt,value
2022-10-29T00:04:55.518Z,84.31
2022-10-29T00:10:02.896Z,84.28
2022-10-29T00:15:12.374Z,84.28
2022-10-29T00:20:21.416Z,84.24
2022-10-29T00:25:29.252Z,84.19
2022-10-29T00:30:38.653Z,84.15
2022-10-29T00:35:45.952Z,84.09
2022-10-29T00:40:53.251Z,84.03
2022-10-29T00:46:04.776Z,83.97
2022-10-29T00:51:16.245Z,83.91
2022-10-29T00:56:26.316Z,83.87
2022-10-29T01:01:34.145Z,83.82
2022-10-29T01:06:42.675Z,83.80
2022-10-29T01:12:01.545Z,83.78
2022-10-29T01:17:19.571Z,83.75
2022-10-29T01:22:32.059Z,83.72
2022-10-29T01:27:57.445Z,83.69
2022-10-29T01:33:17.735Z,83.66
2022-10-29T01:38:35.096Z,83.62
2022-10-29T01:43:47.638Z,83.59
2022-10-29T01:48:58.430Z,83.59
2022-10-29T01:54:12.051Z,83.61
2022-10-29T01:59:35.259Z,83.60
2022-10-29T02:05:04.140Z,83.56
2022-10-29T02:10:21.374Z,83.55
2022-10-29T02:15:36.658Z,83.54
2022-10-29T02:20:48.382Z,83.53
2022-10-29T02:25:56.185Z,83.57
2022-10-29T02:31:03.993Z,83.59
2022-10-29T02:36:12.509Z,83.60
2022-10-29T02:41:19.926Z,83.61
2022-10-29T02:46:28.299Z,83.62
2022-10-29T02:51:35.567Z,83.62
2022-10-29T02:56:42.932Z,83.65
2022-10-29T03:01:50.479Z,83.65
2022-10-29T03:06:58.402Z,83.65
2022-10-29T03:12:05.742Z,83.67
2022-10-29T03:17:13.186Z,83.70
2022-10-29T03:22:20.869Z,83.70
2022-10-29T03:27:28.570Z,83.71
2022-10-29T03:32:36.215Z,83.73
2022-10-29T03:37:43.796Z,83.75
2022-10-29T03:42:51.033Z,83.76
2022-10-29T03:47:58.975Z,83.78
2022-10-29T03:53:06.545Z,83.81
2022-10-29T03:58:13.730Z,83.85
2022-10-29T04:03:21.168Z,83.87
2022-10-29T04:08:29.498Z,83.86
2022-10-29T04:13:37.021Z,83.85
2022-10-29T04:18:44.768Z,83.85
2022-10-29T04:29:20.286Z,83.85
2022-10-29T04:34:28.180Z,83.85
2022-10-29T04:39:35.516Z,83.92
2022-10-29T04:44:42.963Z,83.91
2022-10-29T04:49:50.606Z,83.82
2022-10-29T04:54:58.219Z,83.82
2022-10-29T05:00:06.270Z,83.71
2022-10-29T05:05:14.358Z,83.60
2022-10-29T05:10:22.402Z,83.54
2022-10-29T05:15:30.711Z,83.51
2022-10-29T05:20:38.514Z,83.46
2022-10-29T05:25:49.738Z,83.43
2022-10-29T05:30:57.098Z,83.44
2022-10-29T05:36:04.915Z,83.43
2022-10-29T05:41:12.243Z,83.39
2022-10-29T05:46:19.629Z,83.36
2022-10-29T05:51:27.419Z,83.35
2022-10-29T05:56:34.670Z,83.37
2022-10-29T06:01:42.255Z,83.38
2022-10-29T06:06:49.662Z,83.40
2022-10-29T06:11:58.269Z,83.46
2022-10-29T06:17:06.813Z,83.52
2022-10-29T06:22:14.381Z,83.60
2022-10-29T06:27:21.901Z,83.65
2022-10-29T06:32:29.654Z,83.70
2022-10-29T06:37:41.225Z,83.72
2022-10-29T06:42:48.645Z,83.74
2022-10-29T06:47:56.522Z,83.73
2022-10-29T06:53:06.032Z,83.73
2022-10-29T06:58:15.914Z,83.78
2022-10-29T07:03:24.194Z,83.81
2022-10-29T07:08:33.972Z,83.87
2022-10-29T07:13:41.377Z,83.91
2022-10-29T07:18:49.197Z,83.95
2022-10-29T07:23:56.559Z,83.96
2022-10-29T07:29:04.429Z,84.11
2022-10-29T07:34:12.128Z,84.32
2022-10-29T07:39:19.612Z,84.48
2022-10-29T07:44:27.350Z,84.61
2022-10-29T07:49:34.718Z,84.75
2022-10-29T07:54:42.187Z,84.75
2022-10-29T07:59:50.713Z,84.72
2022-10-29T08:04:58.449Z,84.72
2022-10-29T08:10:05.875Z,84.75
2022-10-29T08:15:14.984Z,84.78
2022-10-29T08:20:23.522Z,84.79
2022-10-29T08:25:31.167Z,84.80
2022-10-29T08:30:39.348Z,84.78
2022-10-29T08:35:47.046Z,84.75
2022-10-29T08:41:11.737Z,84.75
2022-10-29T08:46:23.761Z,84.77
2022-10-29T08:51:32.636Z,84.79
2022-10-29T08:56:41.933Z,84.76
2022-10-29T09:01:50.191Z,84.87
2022-10-29T09:07:20.606Z,84.96
2022-10-29T09:12:50.005Z,84.99
2022-10-29T09:18:11.705Z,85.06
2022-10-29T09:23:30.212Z,85.05
2022-10-29T09:28:51.686Z,85.06
2022-10-29T09:34:05.476Z,85.09
2022-10-29T09:39:23.267Z,85.04
2022-10-29T09:44:40.391Z,85.07
2022-10-29T09:50:08.297Z,85.02
2022-10-29T09:55:22.894Z,85.01
2022-10-29T10:00:32.727Z,84.96
2022-10-29T10:05:58.497Z,84.85
2022-10-29T10:11:08.558Z,84.70
2022-10-29T10:16:24.607Z,84.41
2022-10-29T10:21:33.455Z,84.13
2022-10-29T10:26:44.689Z,84.01
2022-10-29T10:32:11.679Z,83.81
2022-10-29T10:37:22.805Z,83.47
2022-10-29T10:42:34.761Z,83.31
2022-10-29T10:47:43.521Z,83.17
2022-10-29T10:52:51.695Z,83.19
2022-10-29T10:58:06.448Z,82.75
2022-10-29T11:03:20.445Z,82.45
2022-10-29T11:08:35.166Z,82.21
2022-10-29T11:13:44.248Z,82.05
2022-10-29T11:18:58.971Z,81.44
2022-10-29T11:24:12.681Z,81.07
2022-10-29T11:29:31.392Z,80.76
2022-10-29T11:34:51.034Z,79.98
2022-10-29T11:40:04.948Z,79.65
2022-10-29T11:45:17.669Z,79.23
2022-10-29T11:50:35.804Z,78.56
2022-10-29T11:55:51.728Z,78.40
2022-10-29T12:01:11.100Z,78.19
2022-10-29T12:06:26.863Z,77.64
2022-10-29T12:11:44.120Z,77.33
2022-10-29T12:17:01.523Z,76.79
2022-10-29T12:22:21.001Z,76.42
2022-10-29T12:27:36.039Z,76.29
2022-10-29T12:32:55.863Z,76.18
2022-10-29T12:38:23.939Z,75.83
2022-10-29T12:43:33.750Z,75.38
2022-10-29T12:48:54.260Z,75.06
2022-10-29T12:54:23.369Z,74.56
2022-10-29T12:59:38.980Z,74.14
2022-10-29T13:05:17.267Z,73.99
2022-10-29T13:10:57.533Z,74.18
2022-10-29T13:16:08.346Z,73.85
2022-10-29T13:21:16.418Z,73.48
2022-10-29T13:26:57.619Z,72.87
2022-10-29T13:32:07.471Z,72.45
2022-10-29T13:37:49.909Z,72.32
2022-10-29T13:43:03.336Z,72.48
2022-10-29T13:48:20.422Z,71.94
2022-10-29T13:53:36.920Z,71.86
2022-10-29T13:58:47.382Z,71.70
2022-10-29T14:04:04.791Z,71.43
2022-10-29T14:09:20.253Z,71.37
2022-10-29T14:14:34.929Z,71.00
2022-10-29T14:19:47.275Z,70.84
2022-10-29T14:24:54.530Z,70.55
2022-10-29T14:30:20.937Z,70.25
2022-10-29T14:35:28.869Z,70.10
2022-10-29T14:40:36.422Z,69.79
2022-10-29T14:45:43.980Z,69.60
2022-10-29T14:50:56.977Z,69.71
2022-10-29T14:56:11.875Z,69.68
2022-10-29T15:01:21.100Z,69.72
2022-10-29T15:06:31.640Z,69.66
2022-10-29T15:11:42.524Z,69.56
2022-10-29T15:16:52.185Z,69.48
2022-10-29T15:21:59.644Z,69.37
2022-10-29T15:27:07.968Z,69.24
2022-10-29T15:32:19.577Z,69.06
2022-10-29T15:37:46.544Z,69.03
2022-10-29T15:42:54.735Z,69.00
2022-10-29T15:48:37.489Z,68.98
2022-10-29T15:53:44.939Z,69.12
2022-10-29T15:58:52.899Z,69.07
2022-10-29T16:04:00.433Z,69.14
2022-10-29T16:09:08.630Z,69.18
2022-10-29T16:14:16.480Z,69.28
2022-10-29T16:19:23.982Z,69.37
2022-10-29T16:24:31.752Z,69.44
2022-10-29T16:29:39.141Z,69.62
2022-10-29T16:34:46.641Z,69.73
2022-10-29T16:39:54.601Z,69.93
2022-10-29T16:45:01.997Z,70.00
2022-10-29T16:50:11.672Z,70.10
2022-10-29T16:55:19.642Z,70.19
2022-10-29T17:00:27.558Z,70.26
2022-10-29T17:05:36.647Z,70.30
2022-10-29T17:10:44.369Z,70.31
2022-10-29T17:15:52.084Z,70.30
2022-10-29T17:21:01.584Z,70.36
2022-10-29T17:26:09.520Z,70.50
2022-10-29T17:31:17.058Z,70.58
2022-10-29T17:36:24.534Z,70.65
2022-10-29T17:41:32.118Z,70.70
2022-10-29T17:46:39.561Z,70.87
2022-10-29T17:51:47.377Z,71.03
2022-10-29T17:56:55.204Z,71.17
2022-10-29T18:02:02.667Z,71.29
2022-10-29T18:07:10.451Z,71.35
2022-10-29T18:12:18.242Z,71.35
2022-10-29T18:17:25.772Z,71.36
2022-10-29T18:22:33.506Z,71.39
2022-10-29T18:27:41.362Z,71.44
2022-10-29T18:32:48.885Z,71.54
2022-10-29T18:37:57.009Z,71.61
2022-10-29T18:43:04.757Z,71.77
2022-10-29T18:48:12.596Z,71.79
2022-10-29T18:53:20.444Z,71.77
2022-10-29T18:58:28.236Z,71.86
2022-10-29T19:03:35.447Z,71.93
2022-10-29T19:08:44.760Z,71.86
2022-10-29T19:13:56.320Z,71.81
2022-10-29T19:24:16.638Z,71.65
2022-10-29T19:29:26.163Z,71.55
2022-10-29T19:34:34.133Z,71.28
2022-10-29T19:39:41.952Z,71.12
2022-10-29T19:44:53.637Z,71.02
2022-10-29T19:50:03.962Z,70.95
2022-10-29T19:55:15.151Z,70.93
2022-10-29T20:00:24.203Z,70.91
2022-10-29T20:05:31.878Z,70.92
2022-10-29T20:10:39.373Z,70.87
2022-10-29T20:15:46.848Z,70.93
2022-10-29T20:20:58.895Z,71.01
2022-10-29T20:26:04.551Z,71.13
2022-10-29T20:31:30.187Z,71.30
2022-10-29T20:36:38.900Z,71.32
2022-10-29T20:41:46.522Z,71.38
2022-10-29T20:46:54.293Z,71.47
2022-10-29T20:52:01.858Z,71.52
2022-10-29T20:57:09.202Z,71.53
2022-10-29T21:02:17.014Z,71.56
2022-10-29T21:07:24.530Z,71.59
2022-10-29T21:12:31.970Z,71.54
2022-10-29T21:17:39.332Z,71.55
2022-10-29T21:22:46.770Z,71.58
2022-10-29T21:27:57.450Z,71.62
2022-10-29T21:33:05.287Z,71.68
2022-10-29T21:38:12.841Z,71.77
2022-10-29T21:43:22.389Z,71.81
2022-10-29T21:48:30.983Z,71.86
2022-10-29T21:53:38.896Z,71.92
2022-10-29T21:58:46.311Z,71.97
2022-10-29T22:03:54.010Z,71.98
2022-10-29T22:09:02.491Z,72.01
2022-10-29T22:14:10.492Z,72.01
2022-10-29T22:19:17.983Z,72.04
2022-10-29T22:24:25.602Z,72.02
2022-10-29T22:29:33.163Z,72.06
2022-10-29T22:34:40.742Z,72.10
2022-10-29T22:39:48.442Z,72.08
2022-10-29T22:44:55.682Z,72.13
2022-10-29T22:50:03.343Z,72.19
2022-10-29T22:55:12.078Z,72.20
2022-10-29T23:00:20.557Z,72.20
2022-10-29T23:05:28.007Z,72.17
2022-10-29T23:10:35.486Z,72.05
2022-10-29T23:15:47.677Z,71.88
2022-10-29T23:20:59.178Z,71.90
2022-10-29T23:26:06.879Z,72.02
2022-10-29T23:31:17.721Z,72.06
2022-10-29T23:36:26.517Z,72.03
2022-10-29T23:41:34.432Z,72.10
2022-10-29T23:46:41.889Z,72.29
2022-10-29T23:51:49.781Z,72.48
2022-10-29T23:56:57.424Z,72.60
